Time;durP1;ratioP1;P1;durP2;ratioP2;P2;SDS_P1;SDS_P2;PMS_P1;PMS_P2;Temp;Humidity;BMP_temperature;BMP_pressure;BME280_temperature;BME280_humidity;BME280_pressure;Samples;Min_cycle;Max_cycle;Signal;HPM_P1;HPM_P2
2022/05/02 00:00:26;;;;;;;5.60;3.53;;;;;15.30;102023.00;;;;5035443;28;20200;-78
2022/05/02 00:02:53;;;;;;;5.57;3.65;;;;;15.30;102020.00;;;;5041025;28;20281;-78
2022/05/02 00:05:21;;;;;;;4.60;3.58;;;;;15.20;102021.00;;;;5040898;28;20224;-78
2022/05/02 00:07:49;;;;;;;3.85;3.17;;;;;15.20;102018.00;;;;5028317;28;20200;-78
2022/05/02 00:10:18;;;;;;;5.90;4.40;;;;;15.20;102023.00;;;;5044727;28;20203;-78
2022/05/02 00:12:45;;;;;;;4.85;3.65;;;;;15.20;102013.00;;;;5034187;28;20201;-78
2022/05/02 00:15:13;;;;;;;3.90;3.47;;;;;15.10;102010.00;;;;5041206;28;20234;-78
2022/05/02 00:17:58;;;;;;;3.75;3.35;;;;;15.10;102020.00;;;;5042252;28;20212;-78
2022/05/02 00:20:30;;;;;;;5.07;3.50;;;;;15.10;102015.00;;;;5036551;28;20195;-78
2022/05/02 00:22:59;;;;;;;4.78;3.53;;;;;15.00;102011.00;;;;5037974;28;20195;-79
2022/05/02 00:25:29;;;;;;;5.15;3.45;;;;;15.00;102015.00;;;;5044696;28;20724;-79
2022/05/02 00:27:57;;;;;;;5.65;3.65;;;;;15.00;102015.00;;;;5044107;28;20677;-79
2022/05/02 00:30:24;;;;;;;4.90;4.28;;;;;15.00;102005.00;;;;5046930;28;20196;-78
2022/05/02 00:32:52;;;;;;;5.30;3.92;;;;;15.00;102006.00;;;;5046686;28;20310;-79
2022/05/02 00:35:19;;;;;;;5.97;4.07;;;;;15.00;102003.00;;;;5039742;28;20208;-76
2022/05/02 00:37:47;;;;;;;4.60;3.53;;;;;14.90;102000.00;;;;5040886;28;20237;-76
2022/05/02 00:40:17;;;;;;;4.07;3.45;;;;;14.90;102001.00;;;;5042992;28;20287;-76
2022/05/02 00:42:46;;;;;;;5.13;3.47;;;;;14.90;101998.00;;;;5037719;28;20680;-79
2022/05/02 00:45:15;;;;;;;4.00;3.38;;;;;14.90;101989.00;;;;5047214;28;20195;-76
2022/05/02 00:47:51;;;;;;;5.40;3.95;;;;;14.80;101988.00;;;;5052080;28;20694;-76
2022/05/02 00:50:29;;;;;;;4.57;3.42;;;;;14.90;101995.00;;;;5043671;28;20762;-76
2022/05/02 00:52:57;;;;;;;4.00;3.17;;;;;14.80;101989.00;;;;5041306;28;20596;-78
2022/05/02 00:55:24;;;;;;;4.80;3.58;;;;;14.80;101982.00;;;;5050451;28;20196;-78
2022/05/02 00:57:53;;;;;;;4.78;4.07;;;;;14.80;101984.00;;;;5048371;28;20215;-78
2022/05/02 01:00:21;;;;;;;6.45;3.38;;;;;14.80;101981.00;;;;5048025;28;20261;-78
2022/05/02 01:02:48;;;;;;;4.30;3.03;;;;;14.80;101982.00;;;;5034968;28;20721;-78
2022/05/02 01:05:15;;;;;;;4.40;3.40;;;;;14.80;101979.00;;;;5044580;28;20203;-78
2022/05/02 01:07:44;;;;;;;4.70;3.03;;;;;14.80;101987.00;;;;5032743;28;20216;-78
2022/05/02 01:10:13;;;;;;;4.18;3.28;;;;;14.70;101986.00;;;;5032312;28;20224;-78
2022/05/02 01:12:40;;;;;;;4.90;2.95;;;;;14.70;101978.00;;;;5031142;28;20196;-78
2022/05/02 01:15:10;;;;;;;4.35;3.70;;;;;14.70;101979.00;;;;5037951;28;20200;-78
2022/05/02 01:17:38;;;;;;;4.28;3.60;;;;;14.70;101981.00;;;;5045868;28;20204;-78
2022/05/02 01:20:09;;;;;;;3.97;3.55;;;;;14.60;101982.00;;;;5041354;28;20285;-78
2022/05/02 01:22:36;;;;;;;3.50;3.05;;;;;14.60;101990.00;;;;5047637;28;20208;-78
2022/05/02 01:25:04;;;;;;;4.30;3.58;;;;;14.60;101979.00;;;;5044431;28;20192;-78
2022/05/02 01:27:31;;;;;;;4.20;3.63;;;;;14.60;101984.00;;;;5033099;28;20235;-78
2022/05/02 01:29:59;;;;;;;5.15;3.72;;;;;14.60;101982.00;;;;5049345;28;20267;-78
2022/05/02 01:32:26;;;;;;;5.38;4.10;;;;;14.60;101978.00;;;;5039103;28;20200;-78
2022/05/02 01:34:53;;;;;;;5.03;3.80;;;;;14.50;101975.00;;;;5040654;28;20197;-77
2022/05/02 01:37:22;;;;;;;4.43;3.80;;;;;14.50;101980.00;;;;5041940;28;20219;-78
2022/05/02 01:39:49;;;;;;;4.28;3.53;;;;;14.50;101981.00;;;;5049331;28;20257;-78
2022/05/02 01:42:16;;;;;;;5.53;3.70;;;;;14.50;101980.00;;;;5050224;28;20220;-78
2022/05/02 01:44:44;;;;;;;3.72;3.25;;;;;14.50;101976.00;;;;5050085;28;20199;-78
2022/05/02 01:47:11;;;;;;;4.05;3.65;;;;;14.50;101972.00;;;;5040207;28;20235;-78
2022/05/02 01:49:38;;;;;;;3.90;3.17;;;;;14.40;101973.00;;;;5047240;28;20210;-78
2022/05/02 01:52:06;;;;;;;4.43;3.85;;;;;14.40;101970.00;;;;5048221;28;20225;-78
2022/05/02 01:54:35;;;;;;;4.95;3.92;;;;;14.40;101968.00;;;;5048968;28;20192;-79
2022/05/02 01:57:02;;;;;;;4.80;3.70;;;;;14.40;101967.00;;;;5040476;28;20582;-79
2022/05/02 01:59:31;;;;;;;6.03;4.75;;;;;14.30;101970.00;;;;5039344;28;20204;-77
2022/05/02 02:01:58;;;;;;;5.45;3.97;;;;;14.30;101970.00;;;;5039691;28;20604;-79
2022/05/02 02:07:10;;;;;;;6.65;4.00;;;;;14.30;101961.00;;;;5039890;28;20648;-76
2022/05/02 02:09:38;;;;;;;5.05;4.07;;;;;14.30;101955.00;;;;5037224;28;20200;-77
2022/05/02 02:12:06;;;;;;;5.65;3.80;;;;;14.30;101957.00;;;;5048682;28;20215;-77
2022/05/02 02:14:34;;;;;;;4.07;3.47;;;;;14.20;101952.00;;;;5048454;28;20192;-77
2022/05/02 02:17:01;;;;;;;4.07;3.45;;;;;14.20;101952.00;;;;5034974;28;20196;-77
2022/05/02 02:19:28;;;;;;;4.65;3.70;;;;;14.20;101956.00;;;;5029543;28;20674;-77
2022/05/02 02:22:16;;;;;;;5.70;4.25;;;;;14.20;101956.00;;;;5042191;28;20669;-77
2022/05/02 02:24:45;;;;;;;4.53;3.78;;;;;14.10;101955.00;;;;5034226;28;20192;-77
2022/05/02 02:27:13;;;;;;;4.50;3.58;;;;;14.10;101952.00;;;;5045477;28;20254;-77
2022/05/02 02:29:40;;;;;;;5.35;4.30;;;;;14.10;101957.00;;;;5047876;28;20199;-78
2022/05/02 02:32:09;;;;;;;5.57;3.95;;;;;14.10;101941.00;;;;5037786;28;20200;-77
2022/05/02 02:34:36;;;;;;;5.40;4.45;;;;;14.10;101949.00;;;;5029347;28;20204;-77
2022/05/02 02:37:04;;;;;;;5.13;4.03;;;;;14.10;101948.00;;;;5037595;28;20207;-77
2022/05/02 02:39:31;;;;;;;5.60;3.53;;;;;14.00;101948.00;;;;5033225;28;20226;-77
2022/05/02 02:41:59;;;;;;;4.25;3.85;;;;;14.00;101952.00;;;;5033673;28;20239;-77
2022/05/02 02:44:27;;;;;;;4.85;3.97;;;;;14.00;101943.00;;;;5031100;28;20208;-77
2022/05/02 02:46:54;;;;;;;4.72;4.05;;;;;14.00;101943.00;;;;5034663;28;20225;-77
2022/05/02 02:49:21;;;;;;;5.18;4.28;;;;;14.00;101939.00;;;;5046035;28;20260;-77
2022/05/02 02:51:49;;;;;;;4.95;4.30;;;;;13.90;101940.00;;;;5029548;28;20575;-77
2022/05/02 02:54:16;;;;;;;5.45;4.20;;;;;13.90;101937.00;;;;5031020;28;20212;-77
2022/05/02 02:56:44;;;;;;;6.93;4.57;;;;;13.90;101934.00;;;;5033349;28;20677;-77
2022/05/02 02:59:13;;;;;;;5.32;3.88;;;;;13.80;101932.00;;;;5038932;28;20200;-77
2022/05/02 03:01:41;;;;;;;5.93;4.13;;;;;13.80;101936.00;;;;5033940;28;20215;-77
2022/05/02 03:06:51;;;;;;;5.10;3.70;;;;;13.80;101930.00;;;;5032101;28;20223;-77
2022/05/02 03:09:18;;;;;;;5.07;3.83;;;;;13.80;101924.00;;;;5042528;28;20203;-77
2022/05/02 03:11:45;;;;;;;5.25;4.32;;;;;13.70;101928.00;;;;5048023;28;20223;-77
2022/05/02 03:14:14;;;;;;;5.72;4.15;;;;;13.70;101924.00;;;;5046460;28;20199;-77
2022/05/02 03:16:41;;;;;;;5.35;4.05;;;;;13.70;101929.00;;;;5034435;28;20195;-77
2022/05/02 03:19:08;;;;;;;4.68;3.90;;;;;13.70;101915.00;;;;5042683;28;20201;-76
2022/05/02 03:21:36;;;;;;;4.50;3.75;;;;;13.70;101917.00;;;;5043324;28;20206;-77
2022/05/02 03:24:03;;;;;;;4.63;4.18;;;;;13.60;101918.00;;;;5030759;28;20618;-77
2022/05/02 03:26:30;;;;;;;4.93;3.83;;;;;13.60;101920.00;;;;5036369;28;20223;-76
2022/05/02 03:28:58;;;;;;;5.15;4.00;;;;;13.60;101916.00;;;;5031721;28;20206;-76
2022/05/02 03:31:26;;;;;;;4.65;4.03;;;;;13.60;101909.00;;;;5040995;28;20262;-76
2022/05/02 03:33:53;;;;;;;6.05;4.63;;;;;13.60;101909.00;;;;5033254;28;20211;-76
2022/05/02 03:36:21;;;;;;;4.90;4.13;;;;;13.50;101906.00;;;;5039432;28;20246;-77
2022/05/02 03:38:48;;;;;;;6.30;4.18;;;;;13.50;101913.00;;;;5033940;28;20908;-77
2022/05/02 03:41:16;;;;;;;5.50;4.32;;;;;13.50;101910.00;;;;5036990;28;20231;-77
2022/05/02 03:43:43;;;;;;;4.85;4.20;;;;;13.50;101912.00;;;;5028854;28;20211;-77
2022/05/02 03:46:10;;;;;;;6.45;4.45;;;;;13.40;101909.00;;;;5036018;28;20278;-77
2022/05/02 03:48:39;;;;;;;5.20;3.95;;;;;13.40;101916.00;;;;5046212;28;20256;-77
2022/05/02 03:51:07;;;;;;;5.50;3.88;;;;;13.40;101910.00;;;;5028125;28;20218;-77
2022/05/02 03:53:34;;;;;;;4.68;3.67;;;;;13.40;101916.00;;;;5030303;28;20192;-77
2022/05/02 03:56:01;;;;;;;6.55;4.43;;;;;13.40;101910.00;;;;5042318;28;20210;-78
2022/05/02 03:58:28;;;;;;;4.97;3.78;;;;;13.40;101912.00;;;;5046991;28;20708;-77
2022/05/02 04:00:56;;;;;;;6.32;4.50;;;;;13.30;101917.00;;;;5035115;28;20211;-77
2022/05/02 04:03:23;;;;;;;5.72;4.10;;;;;13.30;101924.00;;;;5036913;28;20202;-77
2022/05/02 04:05:52;;;;;;;4.22;3.80;;;;;13.30;101919.00;;;;5030231;28;20319;-77
2022/05/02 04:08:19;;;;;;;5.40;4.57;;;;;13.30;101925.00;;;;5044625;28;20251;-77
2022/05/02 04:10:47;;;;;;;7.47;4.88;;;;;13.30;101918.00;;;;5033427;28;20215;-78
2022/05/02 04:13:14;;;;;;;7.30;4.55;;;;;13.30;101924.00;;;;5038255;28;20211;-77
2022/05/02 04:15:41;;;;;;;4.88;4.20;;;;;13.20;101922.00;;;;5047665;28;20200;-78
2022/05/02 04:18:09;;;;;;;5.57;4.60;;;;;13.20;101923.00;;;;5033836;28;20208;-78
2022/05/02 04:20:36;;;;;;;5.43;4.70;;;;;13.20;101924.00;;;;5028205;28;20228;-78
2022/05/02 04:23:05;;;;;;;6.53;4.70;;;;;13.20;101915.00;;;;5029202;28;20254;-78
2022/05/02 04:25:32;;;;;;;6.32;5.00;;;;;13.20;101922.00;;;;5034225;28;20720;-78
2022/05/02 04:27:59;;;;;;;5.82;4.60;;;;;13.20;101922.00;;;;5046938;28;20219;-78
2022/05/02 04:30:28;;;;;;;4.97;4.47;;;;;13.20;101923.00;;;;5036885;28;20202;-77
2022/05/02 04:32:55;;;;;;;5.22;4.35;;;;;13.20;101917.00;;;;5027573;28;20681;-77
2022/05/02 04:35:22;;;;;;;6.13;4.75;;;;;13.20;101921.00;;;;5040777;28;20203;-77
2022/05/02 04:37:50;;;;;;;6.85;4.68;;;;;13.20;101923.00;;;;5047942;28;20239;-77
2022/05/02 04:40:18;;;;;;;5.85;4.90;;;;;13.20;101922.00;;;;5045524;28;20200;-78
2022/05/02 04:42:46;;;;;;;5.22;4.30;;;;;13.20;101928.00;;;;5040549;28;20436;-78
2022/05/02 04:45:13;;;;;;;7.68;5.38;;;;;13.20;101923.00;;;;5041186;28;20585;-78
2022/05/02 04:47:40;;;;;;;5.78;4.95;;;;;13.20;101917.00;;;;5045839;28;20227;-77
2022/05/02 04:50:09;;;;;;;5.65;4.90;;;;;13.20;101922.00;;;;5032975;28;20214;-77
2022/05/02 04:52:36;;;;;;;7.05;5.75;;;;;13.20;101913.00;;;;5040180;28;20200;-77
2022/05/02 04:55:04;;;;;;;6.25;4.70;;;;;13.30;101923.00;;;;5045282;28;20196;-77
2022/05/02 04:57:32;;;;;;;6.18;5.10;;;;;13.30;101927.00;;;;5046864;28;20535;-78
2022/05/02 05:00:00;;;;;;;6.40;4.97;;;;;13.30;101922.00;;;;5033774;28;20207;-78
2022/05/02 05:02:27;;;;;;;6.28;5.07;;;;;13.40;101924.00;;;;5026582;28;20205;-78
2022/05/02 05:04:54;;;;;;;6.63;4.47;;;;;13.40;101925.00;;;;5037023;28;20201;-78
2022/05/02 05:07:22;;;;;;;5.35;4.63;;;;;13.40;101925.00;;;;5035462;28;20223;-78
2022/05/02 05:09:49;;;;;;;6.57;5.32;;;;;13.50;101927.00;;;;5040818;28;20200;-78
2022/05/02 05:12:30;;;;;;;5.95;5.25;;;;;13.40;101925.00;;;;5029074;28;20204;-77
2022/05/02 05:18:00;;;;;;;5.78;4.57;;;;;13.60;101930.00;;;;5027403;28;20200;-78
2022/05/02 05:20:40;;;;;;;6.75;4.95;;;;;13.60;101933.00;;;;5040694;28;20199;-78
2022/05/02 05:23:26;;;;;;;7.00;4.97;;;;;13.60;101927.00;;;;5047386;28;21122;-78
2022/05/02 05:26:10;;;;;;;5.50;4.45;;;;;13.70;101932.00;;;;5029294;28;20208;-78
2022/05/02 05:29:02;;;;;;;5.07;4.25;;;;;13.80;101924.00;;;;5030768;28;20250;-78
2022/05/02 05:31:42;;;;;;;5.90;4.63;;;;;13.90;101921.00;;;;5037112;28;20945;-78
2022/05/02 05:34:16;;;;;;;5.78;4.82;;;;;14.00;101925.00;;;;5044597;28;20740;-77
2022/05/02 05:36:58;;;;;;;6.22;4.85;;;;;14.00;101929.00;;;;5031441;28;20211;-77
2022/05/02 05:39:36;;;;;;;5.95;4.88;;;;;14.10;101930.00;;;;5047291;28;20652;-78
2022/05/02 05:42:13;;;;;;;7.18;5.15;;;;;14.20;101926.00;;;;5034388;28;20342;-76
2022/05/02 05:44:54;;;;;;;5.32;4.22;;;;;14.30;101926.00;;;;5040897;28;20283;-79
2022/05/02 05:47:40;;;;;;;5.75;4.82;;;;;14.30;101929.00;;;;5048991;28;20277;-76
2022/05/02 05:50:21;;;;;;;5.97;5.13;;;;;14.40;101934.00;;;;5048767;28;20203;-77
2022/05/02 05:53:02;;;;;;;5.22;4.38;;;;;14.50;101929.00;;;;5040619;28;20294;-77
2022/05/02 05:55:40;;;;;;;6.10;5.20;;;;;14.60;101934.00;;;;5035519;28;20204;-77
2022/05/02 05:58:15;;;;;;;6.03;5.35;;;;;14.70;101937.00;;;;5036269;28;20207;-77
2022/05/02 06:00:45;;;;;;;5.57;5.03;;;;;14.80;101939.00;;;;5043329;28;20207;-77
2022/05/02 06:03:16;;;;;;;6.68;4.93;;;;;14.90;101939.00;;;;5047760;28;20214;-76
2022/05/02 06:05:45;;;;;;;7.05;4.95;;;;;15.00;101939.00;;;;5043087;28;20207;-76
2022/05/02 06:08:16;;;;;;;6.90;4.85;;;;;15.10;101934.00;;;;5051727;28;20223;-77
2022/05/02 06:10:43;;;;;;;7.60;5.35;;;;;15.20;101941.00;;;;5050705;28;20695;-76
2022/05/02 06:13:13;;;;;;;6.43;5.32;;;;;15.30;101943.00;;;;5051088;28;20200;-76
2022/05/02 06:18:38;;;;;;;5.43;4.63;;;;;15.50;101939.00;;;;5064638;28;20238;-77
2022/05/02 06:21:06;;;;;;;5.85;4.80;;;;;15.70;101938.00;;;;5061824;28;20225;-77
2022/05/02 06:23:36;;;;;;;8.10;5.28;;;;;15.80;101943.00;;;;5064103;28;20204;-76
2022/05/02 06:26:06;;;;;;;7.00;4.35;;;;;15.90;101944.00;;;;5040009;28;20192;-76
2022/05/02 06:28:41;;;;;;;6.22;5.05;;;;;16.00;101943.00;;;;5041238;28;20294;-77
2022/05/02 06:31:13;;;;;;;5.22;4.53;;;;;16.10;101940.00;;;;5049927;28;20253;-76
2022/05/02 06:33:45;;;;;;;6.90;5.00;;;;;16.20;101940.00;;;;5048665;28;20204;-76
2022/05/02 06:36:33;;;;;;;6.30;4.45;;;;;16.20;101946.00;;;;5049957;28;20199;-76
2022/05/02 06:39:04;;;;;;;5.95;4.97;;;;;16.40;101936.00;;;;5049015;28;20583;-77
2022/05/02 06:41:47;;;;;;;5.13;4.43;;;;;16.50;101939.00;;;;5047065;28;20294;-76
2022/05/02 06:44:26;;;;;;;5.78;4.38;;;;;16.60;101932.00;;;;5040968;28;20601;-76
2022/05/02 06:47:02;;;;;;;6.00;4.32;;;;;16.80;101938.00;;;;5044610;28;20704;-76
2022/05/02 06:49:34;;;;;;;7.30;4.38;;;;;16.90;101941.00;;;;5048644;28;20210;-76
2022/05/02 06:52:07;;;;;;;6.57;4.65;;;;;17.00;101938.00;;;;5045068;28;20287;-77
2022/05/02 06:54:49;;;;;;;5.82;4.47;;;;;17.10;101939.00;;;;5029301;28;20192;-77
2022/05/02 06:57:28;;;;;;;4.90;4.40;;;;;17.20;101937.00;;;;5029552;28;20200;-77
2022/05/02 07:00:05;;;;;;;6.60;4.18;;;;;17.30;101936.00;;;;5043864;28;20199;-77
2022/05/02 07:02:55;;;;;;;6.20;4.15;;;;;17.40;101946.00;;;;5048060;28;20573;-75
2022/05/02 07:05:27;;;;;;;5.95;4.40;;;;;17.60;101942.00;;;;5049276;28;20214;-76
2022/05/02 07:08:02;;;;;;;6.07;4.07;;;;;17.70;101944.00;;;;5048962;28;20313;-75
2022/05/02 07:10:33;;;;;;;9.13;4.07;;;;;17.80;101931.00;;;;5048890;28;20244;-76
2022/05/02 07:13:13;;;;;;;7.18;4.30;;;;;17.90;101940.00;;;;5048631;28;20195;-76
2022/05/02 07:15:45;;;;;;;6.40;4.68;;;;;18.00;101939.00;;;;5028158;28;20204;-76
2022/05/02 07:18:35;;;;;;;4.50;3.92;;;;;18.10;101939.00;;;;5028754;28;20283;-76
2022/05/02 07:21:23;;;;;;;4.95;4.15;;;;;18.20;101936.00;;;;5035820;28;20296;-76
2022/05/02 07:24:03;;;;;;;4.63;3.83;;;;;18.40;101938.00;;;;5028381;28;20207;-76
2022/05/02 07:26:34;;;;;;;4.63;4.13;;;;;18.50;101944.00;;;;5028477;28;20207;-76
2022/05/02 07:29:04;;;;;;;5.78;3.85;;;;;18.60;101947.00;;;;5028679;28;20216;-76
2022/05/02 07:31:33;;;;;;;4.10;3.70;;;;;18.80;101944.00;;;;5034269;28;20188;-75
2022/05/02 07:34:02;;;;;;;5.15;3.47;;;;;18.90;101941.00;;;;5046523;28;20599;-75
2022/05/02 07:36:31;;;;;;;6.95;4.22;;;;;19.00;101942.00;;;;5036224;28;20322;-75
2022/05/02 07:39:02;;;;;;;6.07;4.10;;;;;19.10;101941.00;;;;5047601;28;20228;-75
2022/05/02 07:41:30;;;;;;;5.28;4.25;;;;;19.20;101945.00;;;;5047932;28;20220;-75
2022/05/02 07:44:01;;;;;;;4.50;3.90;;;;;19.30;101946.00;;;;5047782;28;20206;-75
2022/05/02 07:46:30;;;;;;;5.60;3.80;;;;;19.40;101950.00;;;;5047205;28;20199;-75
2022/05/02 07:48:59;;;;;;;4.25;3.85;;;;;19.60;101948.00;;;;5047668;28;20715;-75
2022/05/02 07:51:27;;;;;;;3.95;3.58;;;;;19.70;101951.00;;;;5048585;28;20188;-76
2022/05/02 07:53:59;;;;;;;4.70;3.92;;;;;19.80;101954.00;;;;5047870;28;20212;-75
2022/05/02 07:56:28;;;;;;;5.20;3.95;;;;;19.90;101958.00;;;;5047528;28;20253;-76
2022/05/02 07:58:57;;;;;;;5.10;4.47;;;;;20.10;101950.00;;;;5047236;28;20206;-75
2022/05/02 08:01:26;;;;;;;5.65;4.32;;;;;20.20;101957.00;;;;5047347;28;20202;-76
2022/05/02 08:03:54;;;;;;;5.18;4.68;;;;;20.30;101961.00;;;;5047878;28;20200;-76
2022/05/02 08:07:00;;;;;;;4.88;4.05;;;;;20.30;101959.00;;;;5047621;28;20204;-76
2022/05/02 08:10:02;;;;;;;9.55;4.30;;;;;20.40;101959.00;;;;5047693;28;20223;-76
2022/05/02 08:12:34;;;;;;;4.25;3.60;;;;;20.60;101954.00;;;;5047471;28;20199;-76
2022/05/02 08:15:05;;;;;;;5.47;4.40;;;;;20.60;101954.00;;;;5034755;28;20204;-76
2022/05/02 08:17:56;;;;;;;4.60;3.95;;;;;20.70;101960.00;;;;5027673;28;20284;-76
2022/05/02 08:20:29;;;;;;;4.15;3.75;;;;;20.90;101965.00;;;;5038288;28;20203;-76
2022/05/02 08:29:01;;;;;;;6.05;3.75;;;;;21.10;101959.00;;;;5042621;28;20233;-77
2022/05/02 08:31:42;;;;;;;4.22;3.67;;;;;21.20;101958.00;;;;5047547;28;20764;-77
2022/05/02 08:34:21;;;;;;;4.90;4.40;;;;;21.30;101960.00;;;;5047257;28;20291;-76
2022/05/02 08:36:56;;;;;;;4.63;3.65;;;;;21.40;101954.00;;;;5029318;28;20192;-76
2022/05/02 08:39:37;;;;;;;8.15;3.67;;;;;21.60;101945.00;;;;5027866;28;20259;-76
2022/05/02 08:42:35;;;;;;;6.43;3.78;;;;;21.70;101953.00;;;;5027099;28;20216;-77
2022/05/02 08:45:27;;;;;;;5.75;4.40;;;;;21.80;101952.00;;;;5035538;28;20199;-78
2022/05/02 08:48:39;;;;;;;5.43;3.40;;;;;21.90;101949.00;;;;5009982;28;20270;-78
2022/05/02 08:51:38;;;;;;;3.40;3.10;;;;;22.00;101944.00;;;;5003544;28;20760;-75
2022/05/02 08:54:30;;;;;;;3.50;3.20;;;;;22.10;101952.00;;;;5047588;28;20203;-75
2022/05/02 08:57:27;;;;;;;4.60;3.25;;;;;22.20;101954.00;;;;5047849;28;20200;-75
2022/05/02 09:00:16;;;;;;;3.92;3.13;;;;;22.40;101949.00;;;;5047842;28;20199;-75
2022/05/02 09:03:23;;;;;;;4.72;3.38;;;;;22.50;101943.00;;;;5047117;28;20210;-76
2022/05/02 09:06:12;;;;;;;3.75;3.10;;;;;22.60;101952.00;;;;5050712;28;20196;-77
2022/05/02 09:09:12;;;;;;;3.90;3.00;;;;;22.70;101946.00;;;;5051411;28;20238;-76
2022/05/02 09:12:09;;;;;;;3.90;3.03;;;;;22.70;101935.00;;;;5051857;28;20257;-77
2022/05/02 09:15:11;;;;;;;3.90;2.85;;;;;22.80;101946.00;;;;5050586;28;20200;-77
2022/05/02 09:18:39;;;;;;;3.75;3.35;;;;;22.90;101945.00;;;;5051909;28;20289;-76
2022/05/02 09:21:24;;;;;;;3.55;3.13;;;;;23.10;101944.00;;;;4967822;28;20212;-76
2022/05/02 09:24:30;;;;;;;4.50;3.05;;;;;23.10;101941.00;;;;4953790;28;20318;-76
2022/05/02 09:27:30;;;;;;;3.85;2.63;;;;;23.20;101943.00;;;;4970183;28;20286;-77
2022/05/02 09:30:24;;;;;;;2.88;2.58;;;;;23.30;101928.00;;;;5047098;28;20257;-77
2022/05/02 09:33:30;;;;;;;3.15;2.83;;;;;23.30;101940.00;;;;5050610;28;20210;-77
2022/05/02 09:36:19;;;;;;;4.18;3.20;;;;;23.40;101930.00;;;;5050779;28;20203;-77
2022/05/02 09:38:51;;;;;;;4.22;3.38;;;;;23.50;101936.00;;;;5050758;28;20693;-77
2022/05/02 09:41:49;;;;;;;3.80;3.47;;;;;23.60;101935.00;;;;5051132;28;20277;-77
2022/05/02 09:50:30;;;;;;;3.92;3.45;;;;;24.00;101932.00;;;;5050604;28;20705;-76
2022/05/02 09:53:10;;;;;;;3.97;3.63;;;;;24.10;101935.00;;;;5037667;28;20214;-76
2022/05/02 09:58:37;;;;;;;4.88;3.08;;;;;24.40;101935.00;;;;5050806;28;20238;-76
2022/05/02 10:01:11;;;;;;;3.00;2.70;;;;;24.60;101926.00;;;;5045599;28;20192;-76
2022/05/02 10:04:08;;;;;;;4.63;3.15;;;;;24.60;101923.00;;;;5050422;28;20253;-76
2022/05/02 10:06:43;;;;;;;3.70;2.97;;;;;24.80;101920.00;;;;5040515;28;20211;-77
2022/05/02 10:09:22;;;;;;;3.97;3.00;;;;;24.90;101924.00;;;;5049820;28;20664;-77
2022/05/02 10:12:08;;;;;;;3.50;2.45;;;;;24.90;101919.00;;;;5030574;28;20192;-77
2022/05/02 10:15:01;;;;;;;3.33;2.92;;;;;25.00;101921.00;;;;5029901;28;20677;-77
2022/05/02 10:17:45;;;;;;;5.90;3.45;;;;;25.10;101917.00;;;;5029574;28;20283;-76
2022/05/02 10:20:18;;;;;;;6.43;3.17;;;;;25.30;101925.00;;;;5035689;28;20559;-77
2022/05/02 10:23:03;;;;;;;4.18;2.83;;;;;25.30;101923.00;;;;5030979;28;20319;-77
2022/05/02 10:25:38;;;;;;;3.95;2.53;;;;;25.40;101927.00;;;;5030018;28;20724;-77
2022/05/02 10:28:15;;;;;;;2.85;2.60;;;;;25.40;101923.00;;;;5047565;28;20826;-76
2022/05/02 10:30:55;;;;;;;3.95;2.63;;;;;25.40;101921.00;;;;5035561;28;20203;-77
2022/05/02 10:33:31;;;;;;;3.28;2.42;;;;;25.60;101917.00;;;;5029744;28;20192;-78
2022/05/02 10:36:02;;;;;;;3.45;2.80;;;;;25.70;101920.00;;;;5029994;28;20295;-77
2022/05/02 10:38:30;;;;;;;3.33;3.00;;;;;25.80;101911.00;;;;5039192;28;20237;-77
2022/05/02 10:41:07;;;;;;;4.15;3.72;;;;;25.80;101905.00;;;;5029993;28;20224;-78
2022/05/02 10:43:37;;;;;;;3.83;3.03;;;;;25.80;101907.00;;;;5034200;28;20218;-77
2022/05/02 10:46:04;;;;;;;4.32;3.22;;;;;25.90;101904.00;;;;5050054;28;20211;-77
2022/05/02 10:48:41;;;;;;;3.85;3.10;;;;;25.90;101900.00;;;;5048906;28;20277;-78
2022/05/02 10:51:19;;;;;;;4.05;3.33;;;;;25.90;101897.00;;;;5049350;28;20222;-77
2022/05/02 10:54:04;;;;;;;3.15;2.67;;;;;26.00;101890.00;;;;5049711;28;20203;-77
2022/05/02 10:56:36;;;;;;;2.97;2.67;;;;;26.10;101897.00;;;;5049057;28;20195;-77
2022/05/02 10:59:06;;;;;;;3.42;3.13;;;;;26.20;101895.00;;;;5049696;28;20731;-75
2022/05/02 11:01:58;;;;;;;4.63;3.22;;;;;26.10;101895.00;;;;5048477;28;20249;-76
2022/05/02 11:04:38;;;;;;;3.35;2.83;;;;;26.20;101890.00;;;;5005503;28;20227;-76
2022/05/02 11:07:13;;;;;;;4.85;3.00;;;;;26.20;101884.00;;;;5049336;28;20207;-76
2022/05/02 11:09:45;;;;;;;4.55;3.53;;;;;26.30;101896.00;;;;5048299;28;20234;-76
2022/05/02 11:12:15;;;;;;;3.75;2.78;;;;;26.30;101888.00;;;;5049376;28;20223;-76
2022/05/02 11:14:54;;;;;;;3.40;2.78;;;;;26.30;101888.00;;;;5049209;28;20577;-76
2022/05/02 11:17:27;;;;;;;3.50;3.13;;;;;26.20;101881.00;;;;5049058;28;20203;-76
2022/05/02 11:23:10;;;;;;;3.80;3.03;;;;;25.90;101879.00;;;;5049208;28;20214;-76
2022/05/02 11:25:40;;;;;;;3.10;2.72;;;;;25.90;101886.00;;;;5048848;28;20260;-76
2022/05/02 11:28:22;;;;;;;5.60;3.45;;;;;25.80;101881.00;;;;5048555;28;20210;-76
2022/05/02 11:30:56;;;;;;;4.13;3.20;;;;;25.80;101870.00;;;;5049104;28;20195;-76
2022/05/02 11:33:35;;;;;;;3.42;3.08;;;;;25.70;101876.00;;;;5049145;28;20195;-76
2022/05/02 11:36:07;;;;;;;3.28;2.63;;;;;25.80;101877.00;;;;5049149;28;20600;-76
2022/05/02 11:38:53;;;;;;;3.70;3.03;;;;;25.70;101870.00;;;;5048969;28;20227;-76
2022/05/02 11:41:24;;;;;;;4.97;2.75;;;;;25.90;101858.00;;;;5049112;28;20215;-76
2022/05/02 11:44:02;;;;;;;4.43;3.83;;;;;25.90;101863.00;;;;5048453;28;20200;-76
2022/05/02 11:46:31;;;;;;;3.20;2.90;;;;;26.00;101862.00;;;;5048526;28;20195;-76
2022/05/02 11:49:14;;;;;;;3.80;2.90;;;;;26.00;101872.00;;;;5046593;28;20219;-76
2022/05/02 11:51:46;;;;;;;3.15;2.55;;;;;26.10;101860.00;;;;5033611;28;20211;-76
2022/05/02 11:54:29;;;;;;;3.72;2.67;;;;;26.10;101856.00;;;;5049054;28;20199;-76
2022/05/02 11:57:11;;;;;;;3.58;2.80;;;;;26.20;101865.00;;;;5048324;28;20203;-77
2022/05/02 11:59:54;;;;;;;4.75;2.85;;;;;26.20;101860.00;;;;5046407;28;20199;-76
2022/05/02 12:02:46;;;;;;;4.38;3.00;;;;;26.10;101854.00;;;;5028937;28;20219;-76
2022/05/02 12:05:31;;;;;;;3.15;2.85;;;;;26.10;101850.00;;;;5029079;28;20214;-76
2022/05/02 12:07:59;;;;;;;3.47;2.55;;;;;26.30;101851.00;;;;5028595;28;20208;-76
2022/05/02 12:10:35;;;;;;;3.33;2.97;;;;;26.20;101842.00;;;;5046950;28;20693;-76
2022/05/02 12:13:04;;;;;;;6.25;3.05;;;;;26.40;101855.00;;;;5048305;28;20195;-76
2022/05/02 12:15:31;;;;;;;4.07;3.15;;;;;26.40;101855.00;;;;5047890;28;20550;-76
2022/05/02 12:18:03;;;;;;;3.72;3.15;;;;;26.40;101846.00;;;;5048245;28;20204;-76
2022/05/02 12:20:33;;;;;;;4.05;3.00;;;;;26.40;101850.00;;;;5041909;28;20207;-76
2022/05/02 12:23:03;;;;;;;4.13;2.60;;;;;26.40;101842.00;;;;5047847;28;20203;-76
2022/05/02 12:25:35;;;;;;;4.45;3.35;;;;;26.40;101846.00;;;;5048163;28;20219;-76
2022/05/02 12:28:05;;;;;;;3.00;2.70;;;;;26.50;101842.00;;;;5048229;28;20195;-76
2022/05/02 12:30:34;;;;;;;2.70;2.45;;;;;26.60;101841.00;;;;5048700;28;20226;-77
2022/05/02 12:33:04;;;;;;;4.95;2.40;;;;;26.60;101840.00;;;;5048444;28;20192;-76
2022/05/02 12:35:37;;;;;;;3.40;2.55;;;;;26.50;101839.00;;;;5047980;28;20202;-76
2022/05/02 12:38:28;;;;;;;2.92;2.65;;;;;26.40;101838.00;;;;5048279;28;20219;-77
2022/05/02 12:41:04;;;;;;;4.07;2.80;;;;;26.40;101846.00;;;;5047119;28;20222;-77
2022/05/02 12:43:43;;;;;;;3.08;2.60;;;;;26.30;101833.00;;;;5051989;28;20277;-77
2022/05/02 12:46:11;;;;;;;3.38;2.75;;;;;26.40;101840.00;;;;5051585;28;20405;-76
2022/05/02 12:48:41;;;;;;;3.85;2.72;;;;;26.40;101836.00;;;;5051982;28;20727;-77
2022/05/02 12:51:16;;;;;;;3.75;3.05;;;;;26.30;101838.00;;;;5052167;28;20281;-77
2022/05/02 12:56:30;;;;;;;4.78;2.22;;;;;26.40;101825.00;;;;5052202;28;20195;-77
2022/05/02 13:01:48;;;;;;;3.05;2.70;;;;;26.50;101822.00;;;;5051714;28;20584;-77
2022/05/02 13:04:17;;;;;;;3.10;2.55;;;;;26.60;101828.00;;;;5051156;28;20302;-78
2022/05/02 13:06:45;;;;;;;2.90;2.67;;;;;26.60;101825.00;;;;5031572;28;20204;-77
2022/05/02 13:09:15;;;;;;;3.13;2.45;;;;;26.60;101824.00;;;;5050068;28;20319;-77
2022/05/02 13:11:45;;;;;;;2.47;2.20;;;;;26.70;101815.00;;;;5050834;28;20231;-77
2022/05/02 13:14:22;;;;;;;3.97;2.63;;;;;26.70;101818.00;;;;5051878;28;20191;-77
2022/05/02 13:16:50;;;;;;;2.45;2.22;;;;;26.80;101812.00;;;;5051167;28;20200;-77